Cedar Grove, Tennessee
Current Conditions -  °F | °C
As of 12:53 PM on Thursday 30 Oct 2014 (Local Time) from KMKL Reporting Station
Clear Clear  
Wind Chill: 63°   Ceiling: Unl
Heat Index: 63°   Visibility: 10mi
Dew Point: 37°   Wind: 3mph
Humidity: 38%   Direction: 60°ENE
Pressure: 30.12"   Gusts: NA
Location:  35.82°N, 88.6°W
Report Text: KMKL 301753Z 06003KT 10SM CLR 17/03 A3012 RMK AO2 SLP200 T01720028 10172 20017 58019
Loading
Personal Weather Stations






























Interactive Weather Map
Tropical Storm Tracking
New forecast layout! Learn more

10-Day Weather Forecast

Advertisements
Track Severe Weather on mobile